createdAt,value
2017-10-23T00:02:35.296Z,24.40
2017-10-23T00:17:34.495Z,26.07
2017-10-23T00:32:35.910Z,31.73
2017-10-23T00:47:34.931Z,28.00
2017-10-23T01:02:34.913Z,26.80
2017-10-23T01:17:36.892Z,25.37
2017-10-23T01:32:34.279Z,22.90
2017-10-23T01:47:35.213Z,22.37
2017-10-23T02:02:36.648Z,21.60
2017-10-23T02:17:35.148Z,22.13
2017-10-23T02:32:34.588Z,21.00
2017-10-23T02:47:36.538Z,23.47
2017-10-23T03:02:36.511Z,22.37
2017-10-23T03:17:34.462Z,25.40
2017-10-23T03:32:38.657Z,25.00
2017-10-23T03:47:34.308Z,20.47
2017-10-23T04:02:36.275Z,26.90
2017-10-23T04:17:35.298Z,26.73
2017-10-23T04:32:35.140Z,24.97
2017-10-23T04:47:35.135Z,28.30
2017-10-23T05:02:37.107Z,28.60
2017-10-23T05:17:36.024Z,30.10
2017-10-23T05:32:34.442Z,32.90
2017-10-23T05:47:35.457Z,30.50
2017-10-23T06:02:34.322Z,27.63
2017-10-23T06:17:34.291Z,36.07
2017-10-23T06:32:36.727Z,30.37
2017-10-23T06:47:34.662Z,24.37
2017-10-23T07:02:34.723Z,24.87
2017-10-23T07:17:34.577Z,30.40
2017-10-23T07:32:37.011Z,29.60
2017-10-23T07:47:35.069Z,31.70
2017-10-23T08:02:36.929Z,36.47
2017-10-23T08:17:34.334Z,32.27
2017-10-23T08:32:34.294Z,28.57
2017-10-23T08:47:35.215Z,29.73
2017-10-23T09:02:36.190Z,25.83
2017-10-23T09:17:35.135Z,29.70
2017-10-23T09:32:35.105Z,31.60
2017-10-23T09:47:34.531Z,31.37
2017-10-23T10:02:35.438Z,33.87
2017-10-23T10:17:34.453Z,33.00
2017-10-23T10:32:34.846Z,32.07
2017-10-23T10:47:36.849Z,29.80
2017-10-23T11:02:34.759Z,30.40
2017-10-23T11:17:34.749Z,23.77
2017-10-23T11:32:34.614Z,30.87
2017-10-23T11:47:35.953Z,33.80
2017-10-23T12:02:34.560Z,36.27
2017-10-23T12:17:34.985Z,34.70
2017-10-23T12:32:36.434Z,36.90
2017-10-23T12:47:34.310Z,43.57
2017-10-23T13:02:34.469Z,45.23
2017-10-23T13:17:34.198Z,43.97
2017-10-23T13:32:37.401Z,46.90
2017-10-23T13:47:34.822Z,41.40
2017-10-23T14:02:35.648Z,53.07
2017-10-23T14:17:34.533Z,41.30
2017-10-23T14:32:34.980Z,37.07
2017-10-23T14:47:34.969Z,30.33
2017-10-23T15:02:37.030Z,33.87
2017-10-23T15:17:41.412Z,47.07
2017-10-23T15:32:34.202Z,40.73
2017-10-23T15:47:35.186Z,45.37
2017-10-23T16:02:37.153Z,37.53
2017-10-23T16:17:35.113Z,43.70
2017-10-23T16:32:34.516Z,38.30
2017-10-23T16:47:34.537Z,40.67
2017-10-23T17:02:36.434Z,46.50
2017-10-23T17:17:34.517Z,71.20
2017-10-23T17:32:37.893Z,12.73
2017-10-23T17:47:34.869Z,5.67
2017-10-23T18:02:44.407Z,3.70
2017-10-23T18:17:38.440Z,3.07
2017-10-23T18:32:45.424Z,3.00
2017-10-23T18:47:41.057Z,5.33
2017-10-23T19:02:37.125Z,2.83
2017-10-23T19:17:36.993Z,2.60
2017-10-23T19:32:36.486Z,5.60
2017-10-23T19:47:37.646Z,2.63
2017-10-23T20:02:36.533Z,2.60
2017-10-23T20:17:39.399Z,2.07
2017-10-23T20:32:34.813Z,2.73
2017-10-23T20:47:34.690Z,3.30
2017-10-23T21:02:36.673Z,1.60
2017-10-23T21:17:37.305Z,1.70
2017-10-23T21:32:35.059Z,1.60
2017-10-23T21:47:34.989Z,1.33
2017-10-23T22:02:34.950Z,1.53
2017-10-23T22:17:34.865Z,1.57
2017-10-23T22:32:37.367Z,1.77
2017-10-23T22:47:36.264Z,1.70
2017-10-23T23:02:33.773Z,1.30
2017-10-23T23:17:34.200Z,1.40
2017-10-23T23:32:36.609Z,1.30
2017-10-23T23:47:36.565Z,1.17
